sensor_id;sensor_type;location;lat;lon;timestamp;P1;durP1;ratioP1;P2;durP2;ratioP2
3916;SDS011;1973;50.518;7.318;2023-03-01T00:02:10;12.27;;;7.80;;
3916;SDS011;1973;50.518;7.318;2023-03-01T00:04:36;8.07;;;6.53;;
3916;SDS011;1973;50.518;7.318;2023-03-01T00:07:03;8.10;;;6.83;;
3916;SDS011;1973;50.518;7.318;2023-03-01T00:09:29;10.43;;;7.63;;
3916;SDS011;1973;50.518;7.318;2023-03-01T00:11:56;9.47;;;6.60;;
3916;SDS011;1973;50.518;7.318;2023-03-01T00:14:22;7.77;;;5.80;;
3916;SDS011;1973;50.518;7.318;2023-03-01T00:16:49;7.80;;;6.03;;
3916;SDS011;1973;50.518;7.318;2023-03-01T00:19:17;9.73;;;6.70;;
3916;SDS011;1973;50.518;7.318;2023-03-01T00:21:45;8.20;;;5.80;;
3916;SDS011;1973;50.518;7.318;2023-03-01T00:24:12;6.77;;;5.80;;
3916;SDS011;1973;50.518;7.318;2023-03-01T00:26:38;7.10;;;5.80;;
3916;SDS011;1973;50.518;7.318;2023-03-01T00:29:05;7.70;;;5.90;;
3916;SDS011;1973;50.518;7.318;2023-03-01T00:31:32;8.70;;;5.83;;
3916;SDS011;1973;50.518;7.318;2023-03-01T00:34:00;8.13;;;6.33;;
3916;SDS011;1973;50.518;7.318;2023-03-01T00:36:29;12.20;;;7.43;;
3916;SDS011;1973;50.518;7.318;2023-03-01T00:39:01;9.47;;;5.97;;
3916;SDS011;1973;50.518;7.318;2023-03-01T00:41:30;8.07;;;5.93;;
3916;SDS011;1973;50.518;7.318;2023-03-01T00:43:57;8.50;;;5.83;;
3916;SDS011;1973;50.518;7.318;2023-03-01T00:46:24;7.43;;;6.33;;
3916;SDS011;1973;50.518;7.318;2023-03-01T00:48:52;8.87;;;6.40;;
3916;SDS011;1973;50.518;7.318;2023-03-01T00:51:20;10.37;;;6.73;;
3916;SDS011;1973;50.518;7.318;2023-03-01T00:53:52;10.23;;;7.60;;
3916;SDS011;1973;50.518;7.318;2023-03-01T00:56:20;9.77;;;6.73;;
3916;SDS011;1973;50.518;7.318;2023-03-01T00:58:47;8.10;;;7.13;;
3916;SDS011;1973;50.518;7.318;2023-03-01T01:01:17;9.20;;;6.50;;
3916;SDS011;1973;50.518;7.318;2023-03-01T01:03:50;11.67;;;7.17;;
3916;SDS011;1973;50.518;7.318;2023-03-01T01:06:23;8.63;;;6.10;;
3916;SDS011;1973;50.518;7.318;2023-03-01T01:08:52;12.50;;;7.50;;
3916;SDS011;1973;50.518;7.318;2023-03-01T01:11:20;8.20;;;6.10;;
3916;SDS011;1973;50.518;7.318;2023-03-01T01:13:48;10.00;;;8.33;;
3916;SDS011;1973;50.518;7.318;2023-03-01T01:16:16;7.93;;;6.37;;
3916;SDS011;1973;50.518;7.318;2023-03-01T01:18:44;8.87;;;7.00;;
3916;SDS011;1973;50.518;7.318;2023-03-01T01:21:12;10.00;;;7.40;;
3916;SDS011;1973;50.518;7.318;2023-03-01T01:23:40;10.03;;;7.03;;
3916;SDS011;1973;50.518;7.318;2023-03-01T01:26:30;11.67;;;7.33;;
3916;SDS011;1973;50.518;7.318;2023-03-01T01:28:56;9.10;;;7.03;;
3916;SDS011;1973;50.518;7.318;2023-03-01T01:31:23;15.30;;;9.27;;
3916;SDS011;1973;50.518;7.318;2023-03-01T01:33:51;10.03;;;7.00;;
3916;SDS011;1973;50.518;7.318;2023-03-01T01:36:18;15.93;;;8.60;;
3916;SDS011;1973;50.518;7.318;2023-03-01T01:38:46;12.20;;;8.40;;
3916;SDS011;1973;50.518;7.318;2023-03-01T01:41:14;10.53;;;8.60;;
3916;SDS011;1973;50.518;7.318;2023-03-01T01:43:42;9.90;;;7.57;;
3916;SDS011;1973;50.518;7.318;2023-03-01T01:49:03;13.93;;;7.93;;
3916;SDS011;1973;50.518;7.318;2023-03-01T01:51:35;10.37;;;7.60;;
3916;SDS011;1973;50.518;7.318;2023-03-01T01:54:10;9.47;;;7.33;;
3916;SDS011;1973;50.518;7.318;2023-03-01T01:56:41;8.27;;;5.87;;
3916;SDS011;1973;50.518;7.318;2023-03-01T01:59:11;11.43;;;6.90;;
3916;SDS011;1973;50.518;7.318;2023-03-01T02:01:38;9.67;;;7.30;;
3916;SDS011;1973;50.518;7.318;2023-03-01T02:04:05;9.30;;;7.33;;
3916;SDS011;1973;50.518;7.318;2023-03-01T02:06:55;8.50;;;7.60;;
3916;SDS011;1973;50.518;7.318;2023-03-01T02:09:23;11.37;;;7.90;;
3916;SDS011;1973;50.518;7.318;2023-03-01T02:11:50;10.73;;;7.67;;
3916;SDS011;1973;50.518;7.318;2023-03-01T02:14:18;8.40;;;6.80;;
3916;SDS011;1973;50.518;7.318;2023-03-01T02:16:44;11.20;;;7.20;;
3916;SDS011;1973;50.518;7.318;2023-03-01T02:19:25;9.47;;;7.60;;
3916;SDS011;1973;50.518;7.318;2023-03-01T02:22:02;9.07;;;7.60;;
3916;SDS011;1973;50.518;7.318;2023-03-01T02:27:50;9.27;;;7.00;;
3916;SDS011;1973;50.518;7.318;2023-03-01T02:30:32;10.00;;;8.40;;
3916;SDS011;1973;50.518;7.318;2023-03-01T02:32:59;9.00;;;7.40;;
3916;SDS011;1973;50.518;7.318;2023-03-01T02:35:29;9.47;;;7.13;;
3916;SDS011;1973;50.518;7.318;2023-03-01T02:38:00;10.10;;;7.43;;
3916;SDS011;1973;50.518;7.318;2023-03-01T02:40:28;10.97;;;8.67;;
3916;SDS011;1973;50.518;7.318;2023-03-01T02:42:57;10.10;;;7.90;;
3916;SDS011;1973;50.518;7.318;2023-03-01T02:45:25;11.20;;;8.10;;
3916;SDS011;1973;50.518;7.318;2023-03-01T02:47:53;12.33;;;8.70;;
3916;SDS011;1973;50.518;7.318;2023-03-01T02:50:36;10.40;;;7.70;;
3916;SDS011;1973;50.518;7.318;2023-03-01T02:53:21;14.40;;;8.30;;
3916;SDS011;1973;50.518;7.318;2023-03-01T02:55:58;10.90;;;7.70;;
3916;SDS011;1973;50.518;7.318;2023-03-01T02:58:25;11.23;;;8.17;;
3916;SDS011;1973;50.518;7.318;2023-03-01T03:00:51;10.03;;;7.60;;
3916;SDS011;1973;50.518;7.318;2023-03-01T03:03:19;11.17;;;8.40;;
3916;SDS011;1973;50.518;7.318;2023-03-01T03:05:47;10.67;;;7.73;;
3916;SDS011;1973;50.518;7.318;2023-03-01T03:08:14;8.20;;;7.27;;
3916;SDS011;1973;50.518;7.318;2023-03-01T03:10:50;13.93;;;8.80;;
3916;SDS011;1973;50.518;7.318;2023-03-01T03:13:16;10.90;;;8.67;;
3916;SDS011;1973;50.518;7.318;2023-03-01T03:15:43;12.50;;;7.73;;
3916;SDS011;1973;50.518;7.318;2023-03-01T03:18:11;11.97;;;8.60;;
3916;SDS011;1973;50.518;7.318;2023-03-01T03:20:41;13.23;;;8.20;;
3916;SDS011;1973;50.518;7.318;2023-03-01T03:23:08;12.20;;;8.07;;
3916;SDS011;1973;50.518;7.318;2023-03-01T03:25:35;11.20;;;8.07;;
3916;SDS011;1973;50.518;7.318;2023-03-01T03:28:04;9.70;;;7.57;;
3916;SDS011;1973;50.518;7.318;2023-03-01T03:30:36;9.90;;;7.30;;
3916;SDS011;1973;50.518;7.318;2023-03-01T03:33:08;10.13;;;7.90;;
3916;SDS011;1973;50.518;7.318;2023-03-01T03:35:40;7.77;;;6.90;;
3916;SDS011;1973;50.518;7.318;2023-03-01T03:38:12;10.53;;;8.20;;
3916;SDS011;1973;50.518;7.318;2023-03-01T03:40:44;13.30;;;9.20;;
3916;SDS011;1973;50.518;7.318;2023-03-01T03:43:13;9.57;;;7.63;;
3916;SDS011;1973;50.518;7.318;2023-03-01T03:45:44;10.57;;;8.23;;
3916;SDS011;1973;50.518;7.318;2023-03-01T03:48:11;9.87;;;7.80;;
3916;SDS011;1973;50.518;7.318;2023-03-01T03:50:38;9.60;;;7.57;;
3916;SDS011;1973;50.518;7.318;2023-03-01T03:53:07;11.40;;;8.33;;
3916;SDS011;1973;50.518;7.318;2023-03-01T03:55:35;9.97;;;8.20;;
3916;SDS011;1973;50.518;7.318;2023-03-01T03:58:06;15.27;;;8.87;;
3916;SDS011;1973;50.518;7.318;2023-03-01T04:00:34;11.07;;;8.70;;
3916;SDS011;1973;50.518;7.318;2023-03-01T04:03:03;11.97;;;8.90;;
3916;SDS011;1973;50.518;7.318;2023-03-01T04:05:30;14.63;;;9.23;;
3916;SDS011;1973;50.518;7.318;2023-03-01T04:07:57;12.57;;;8.50;;
3916;SDS011;1973;50.518;7.318;2023-03-01T04:10:27;15.83;;;10.37;;
3916;SDS011;1973;50.518;7.318;2023-03-01T04:12:56;16.50;;;11.00;;
3916;SDS011;1973;50.518;7.318;2023-03-01T04:15:23;14.53;;;9.07;;
3916;SDS011;1973;50.518;7.318;2023-03-01T04:17:51;13.80;;;9.83;;
3916;SDS011;1973;50.518;7.318;2023-03-01T04:20:20;12.30;;;9.17;;
3916;SDS011;1973;50.518;7.318;2023-03-01T04:22:51;16.40;;;11.00;;
3916;SDS011;1973;50.518;7.318;2023-03-01T04:25:23;13.87;;;9.77;;
3916;SDS011;1973;50.518;7.318;2023-03-01T04:27:50;14.40;;;10.37;;
3916;SDS011;1973;50.518;7.318;2023-03-01T04:30:17;13.30;;;9.80;;
3916;SDS011;1973;50.518;7.318;2023-03-01T04:32:43;13.63;;;9.47;;
3916;SDS011;1973;50.518;7.318;2023-03-01T04:35:10;14.27;;;9.10;;
3916;SDS011;1973;50.518;7.318;2023-03-01T04:37:36;14.80;;;9.43;;
3916;SDS011;1973;50.518;7.318;2023-03-01T04:40:03;17.53;;;10.83;;
3916;SDS011;1973;50.518;7.318;2023-03-01T04:42:42;14.77;;;10.47;;
3916;SDS011;1973;50.518;7.318;2023-03-01T04:45:09;15.80;;;10.50;;
3916;SDS011;1973;50.518;7.318;2023-03-01T04:47:40;14.00;;;10.33;;
3916;SDS011;1973;50.518;7.318;2023-03-01T04:50:07;19.23;;;10.47;;
3916;SDS011;1973;50.518;7.318;2023-03-01T04:52:34;15.40;;;9.90;;
3916;SDS011;1973;50.518;7.318;2023-03-01T04:55:01;13.57;;;9.30;;
3916;SDS011;1973;50.518;7.318;2023-03-01T04:57:29;16.37;;;11.50;;
3916;SDS011;1973;50.518;7.318;2023-03-01T04:59:56;15.10;;;10.60;;
3916;SDS011;1973;50.518;7.318;2023-03-01T05:02:23;16.50;;;11.23;;
3916;SDS011;1973;50.518;7.318;2023-03-01T05:04:49;14.40;;;10.77;;
3916;SDS011;1973;50.518;7.318;2023-03-01T05:07:16;17.20;;;11.27;;
3916;SDS011;1973;50.518;7.318;2023-03-01T05:09:45;18.80;;;10.30;;
3916;SDS011;1973;50.518;7.318;2023-03-01T05:12:13;15.10;;;10.73;;
3916;SDS011;1973;50.518;7.318;2023-03-01T05:14:40;17.80;;;12.07;;
3916;SDS011;1973;50.518;7.318;2023-03-01T05:17:07;18.37;;;10.30;;
3916;SDS011;1973;50.518;7.318;2023-03-01T05:19:34;15.13;;;11.47;;
3916;SDS011;1973;50.518;7.318;2023-03-01T05:22:00;16.10;;;10.93;;
3916;SDS011;1973;50.518;7.318;2023-03-01T05:24:31;20.30;;;13.40;;
3916;SDS011;1973;50.518;7.318;2023-03-01T05:27:00;13.77;;;10.93;;
3916;SDS011;1973;50.518;7.318;2023-03-01T05:29:28;15.67;;;11.27;;
3916;SDS011;1973;50.518;7.318;2023-03-01T05:31:58;18.70;;;12.33;;
3916;SDS011;1973;50.518;7.318;2023-03-01T05:34:31;17.63;;;12.50;;
3916;SDS011;1973;50.518;7.318;2023-03-01T05:36:59;16.90;;;11.73;;
3916;SDS011;1973;50.518;7.318;2023-03-01T05:39:27;17.47;;;12.47;;
3916;SDS011;1973;50.518;7.318;2023-03-01T05:41:56;14.93;;;11.20;;
3916;SDS011;1973;50.518;7.318;2023-03-01T05:44:24;18.23;;;11.10;;
3916;SDS011;1973;50.518;7.318;2023-03-01T05:46:51;18.63;;;12.40;;
3916;SDS011;1973;50.518;7.318;2023-03-01T05:49:18;14.60;;;11.20;;
3916;SDS011;1973;50.518;7.318;2023-03-01T05:51:49;14.30;;;11.23;;
3916;SDS011;1973;50.518;7.318;2023-03-01T05:54:16;16.57;;;12.03;;
3916;SDS011;1973;50.518;7.318;2023-03-01T05:56:44;22.17;;;10.90;;
3916;SDS011;1973;50.518;7.318;2023-03-01T05:59:11;15.43;;;10.97;;
3916;SDS011;1973;50.518;7.318;2023-03-01T06:01:37;16.13;;;10.23;;
3916;SDS011;1973;50.518;7.318;2023-03-01T06:04:04;14.57;;;11.10;;
3916;SDS011;1973;50.518;7.318;2023-03-01T06:06:34;14.93;;;11.00;;
3916;SDS011;1973;50.518;7.318;2023-03-01T06:09:05;13.47;;;10.13;;
3916;SDS011;1973;50.518;7.318;2023-03-01T06:11:35;11.80;;;8.80;;
3916;SDS011;1973;50.518;7.318;2023-03-01T06:14:03;13.43;;;10.13;;
3916;SDS011;1973;50.518;7.318;2023-03-01T06:16:30;14.07;;;10.53;;
3916;SDS011;1973;50.518;7.318;2023-03-01T06:18:57;13.37;;;10.33;;
3916;SDS011;1973;50.518;7.318;2023-03-01T06:21:24;14.20;;;10.70;;
3916;SDS011;1973;50.518;7.318;2023-03-01T06:23:50;14.47;;;10.40;;
3916;SDS011;1973;50.518;7.318;2023-03-01T06:26:17;24.50;;;12.07;;
3916;SDS011;1973;50.518;7.318;2023-03-01T06:28:44;21.30;;;13.50;;
3916;SDS011;1973;50.518;7.318;2023-03-01T06:31:12;22.87;;;15.00;;
3916;SDS011;1973;50.518;7.318;2023-03-01T06:33:38;18.60;;;14.67;;
3916;SDS011;1973;50.518;7.318;2023-03-01T06:36:05;18.93;;;13.37;;
3916;SDS011;1973;50.518;7.318;2023-03-01T06:38:32;19.47;;;13.57;;
3916;SDS011;1973;50.518;7.318;2023-03-01T06:40:58;17.40;;;12.47;;
3916;SDS011;1973;50.518;7.318;2023-03-01T06:43:25;21.00;;;13.40;;
3916;SDS011;1973;50.518;7.318;2023-03-01T06:45:51;20.83;;;12.40;;
3916;SDS011;1973;50.518;7.318;2023-03-01T06:48:18;23.50;;;13.50;;
3916;SDS011;1973;50.518;7.318;2023-03-01T06:50:44;19.20;;;12.40;;
3916;SDS011;1973;50.518;7.318;2023-03-01T06:53:11;24.53;;;13.87;;
3916;SDS011;1973;50.518;7.318;2023-03-01T06:55:37;23.60;;;14.00;;
3916;SDS011;1973;50.518;7.318;2023-03-01T06:58:04;32.70;;;18.00;;
3916;SDS011;1973;50.518;7.318;2023-03-01T07:00:31;37.77;;;19.60;;
3916;SDS011;1973;50.518;7.318;2023-03-01T07:02:59;25.47;;;14.60;;
3916;SDS011;1973;50.518;7.318;2023-03-01T07:05:28;22.13;;;14.00;;
3916;SDS011;1973;50.518;7.318;2023-03-01T07:07:55;21.20;;;12.93;;
3916;SDS011;1973;50.518;7.318;2023-03-01T07:10:22;20.10;;;14.43;;
3916;SDS011;1973;50.518;7.318;2023-03-01T07:12:49;19.00;;;13.30;;
3916;SDS011;1973;50.518;7.318;2023-03-01T07:15:15;17.33;;;12.80;;
3916;SDS011;1973;50.518;7.318;2023-03-01T07:17:42;20.60;;;13.07;;
3916;SDS011;1973;50.518;7.318;2023-03-01T07:20:10;19.83;;;14.90;;
3916;SDS011;1973;50.518;7.318;2023-03-01T07:22:39;24.83;;;14.57;;
3916;SDS011;1973;50.518;7.318;2023-03-01T07:25:06;19.77;;;13.90;;
3916;SDS011;1973;50.518;7.318;2023-03-01T07:27:33;20.00;;;13.93;;
3916;SDS011;1973;50.518;7.318;2023-03-01T07:29:59;23.50;;;16.00;;
3916;SDS011;1973;50.518;7.318;2023-03-01T07:32:26;20.23;;;15.70;;
3916;SDS011;1973;50.518;7.318;2023-03-01T07:34:52;23.90;;;14.53;;
3916;SDS011;1973;50.518;7.318;2023-03-01T07:37:19;17.20;;;13.40;;
3916;SDS011;1973;50.518;7.318;2023-03-01T07:39:45;21.03;;;13.47;;
3916;SDS011;1973;50.518;7.318;2023-03-01T07:42:12;17.67;;;12.93;;
3916;SDS011;1973;50.518;7.318;2023-03-01T07:44:38;17.23;;;13.83;;
3916;SDS011;1973;50.518;7.318;2023-03-01T07:47:05;18.57;;;13.27;;
3916;SDS011;1973;50.518;7.318;2023-03-01T07:49:31;19.50;;;14.70;;
3916;SDS011;1973;50.518;7.318;2023-03-01T07:51:58;18.50;;;13.97;;
3916;SDS011;1973;50.518;7.318;2023-03-01T07:54:24;18.43;;;13.60;;
3916;SDS011;1973;50.518;7.318;2023-03-01T07:56:52;20.83;;;12.73;;
3916;SDS011;1973;50.518;7.318;2023-03-01T07:59:18;19.67;;;14.57;;
3916;SDS011;1973;50.518;7.318;2023-03-01T08:01:45;18.50;;;12.70;;
3916;SDS011;1973;50.518;7.318;2023-03-01T08:04:11;21.43;;;14.80;;
3916;SDS011;1973;50.518;7.318;2023-03-01T08:06:38;22.20;;;14.90;;
3916;SDS011;1973;50.518;7.318;2023-03-01T08:09:04;20.33;;;15.27;;
3916;SDS011;1973;50.518;7.318;2023-03-01T08:11:30;23.83;;;16.00;;
3916;SDS011;1973;50.518;7.318;2023-03-01T08:13:57;20.63;;;14.70;;
3916;SDS011;1973;50.518;7.318;2023-03-01T08:16:24;21.33;;;15.07;;
3916;SDS011;1973;50.518;7.318;2023-03-01T08:18:50;21.27;;;14.70;;
3916;SDS011;1973;50.518;7.318;2023-03-01T08:21:17;24.97;;;15.97;;
3916;SDS011;1973;50.518;7.318;2023-03-01T08:23:44;19.00;;;14.27;;
3916;SDS011;1973;50.518;7.318;2023-03-01T08:26:12;22.00;;;15.50;;
3916;SDS011;1973;50.518;7.318;2023-03-01T08:28:41;20.27;;;16.10;;
3916;SDS011;1973;50.518;7.318;2023-03-01T08:31:25;18.90;;;15.07;;
3916;SDS011;1973;50.518;7.318;2023-03-01T08:33:55;18.90;;;14.20;;
3916;SDS011;1973;50.518;7.318;2023-03-01T08:36:27;18.20;;;14.60;;
3916;SDS011;1973;50.518;7.318;2023-03-01T08:38:56;20.57;;;15.30;;
3916;SDS011;1973;50.518;7.318;2023-03-01T08:41:23;22.97;;;15.83;;
3916;SDS011;1973;50.518;7.318;2023-03-01T08:43:50;17.97;;;13.63;;
3916;SDS011;1973;50.518;7.318;2023-03-01T08:46:16;22.43;;;14.40;;
3916;SDS011;1973;50.518;7.318;2023-03-01T08:48:43;20.23;;;14.80;;
3916;SDS011;1973;50.518;7.318;2023-03-01T08:51:10;25.87;;;16.50;;
3916;SDS011;1973;50.518;7.318;2023-03-01T08:53:43;23.43;;;15.80;;
3916;SDS011;1973;50.518;7.318;2023-03-01T08:56:10;25.40;;;17.23;;
3916;SDS011;1973;50.518;7.318;2023-03-01T08:58:37;24.30;;;16.67;;
3916;SDS011;1973;50.518;7.318;2023-03-01T09:01:12;19.53;;;16.30;;
3916;SDS011;1973;50.518;7.318;2023-03-01T09:03:41;22.80;;;16.13;;
3916;SDS011;1973;50.518;7.318;2023-03-01T09:06:07;23.30;;;17.33;;
3916;SDS011;1973;50.518;7.318;2023-03-01T09:08:35;22.63;;;17.33;;
3916;SDS011;1973;50.518;7.318;2023-03-01T09:11:06;20.07;;;16.13;;
3916;SDS011;1973;50.518;7.318;2023-03-01T09:13:34;21.80;;;16.00;;
3916;SDS011;1973;50.518;7.318;2023-03-01T09:16:01;24.60;;;17.93;;
3916;SDS011;1973;50.518;7.318;2023-03-01T09:18:30;19.40;;;15.00;;
3916;SDS011;1973;50.518;7.318;2023-03-01T09:21:07;20.97;;;15.30;;
3916;SDS011;1973;50.518;7.318;2023-03-01T09:23:37;21.00;;;15.20;;
3916;SDS011;1973;50.518;7.318;2023-03-01T09:26:09;20.87;;;16.00;;
3916;SDS011;1973;50.518;7.318;2023-03-01T09:28:37;24.27;;;17.57;;
3916;SDS011;1973;50.518;7.318;2023-03-01T09:31:04;24.47;;;17.07;;
3916;SDS011;1973;50.518;7.318;2023-03-01T09:33:31;18.57;;;14.23;;
3916;SDS011;1973;50.518;7.318;2023-03-01T09:35:59;20.17;;;15.50;;
3916;SDS011;1973;50.518;7.318;2023-03-01T09:38:31;19.57;;;14.70;;
3916;SDS011;1973;50.518;7.318;2023-03-01T09:40:58;22.70;;;15.57;;
3916;SDS011;1973;50.518;7.318;2023-03-01T09:46:23;19.60;;;14.60;;
3916;SDS011;1973;50.518;7.318;2023-03-01T09:48:54;22.00;;;15.13;;
3916;SDS011;1973;50.518;7.318;2023-03-01T09:51:26;19.70;;;14.70;;
3916;SDS011;1973;50.518;7.318;2023-03-01T09:54:00;20.20;;;15.00;;
3916;SDS011;1973;50.518;7.318;2023-03-01T09:59:21;20.47;;;14.60;;
3916;SDS011;1973;50.518;7.318;2023-03-01T10:01:59;21.80;;;15.03;;
3916;SDS011;1973;50.518;7.318;2023-03-01T10:04:46;24.77;;;15.93;;
3916;SDS011;1973;50.518;7.318;2023-03-01T10:07:32;24.10;;;16.87;;
3916;SDS011;1973;50.518;7.318;2023-03-01T10:10:23;20.40;;;15.17;;
3916;SDS011;1973;50.518;7.318;2023-03-01T10:13:00;21.90;;;15.20;;
3916;SDS011;1973;50.518;7.318;2023-03-01T10:15:35;22.57;;;15.13;;
3916;SDS011;1973;50.518;7.318;2023-03-01T10:18:28;22.67;;;14.80;;
3916;SDS011;1973;50.518;7.318;2023-03-01T10:21:14;21.37;;;15.57;;
3916;SDS011;1973;50.518;7.318;2023-03-01T10:23:43;19.97;;;14.73;;
3916;SDS011;1973;50.518;7.318;2023-03-01T10:29:03;22.13;;;16.87;;
3916;SDS011;1973;50.518;7.318;2023-03-01T10:31:44;21.00;;;15.53;;
3916;SDS011;1973;50.518;7.318;2023-03-01T10:34:17;19.87;;;14.90;;
3916;SDS011;1973;50.518;7.318;2023-03-01T10:36:55;16.73;;;14.17;;
3916;SDS011;1973;50.518;7.318;2023-03-01T10:39:24;20.13;;;14.70;;
3916;SDS011;1973;50.518;7.318;2023-03-01T10:41:53;18.60;;;14.83;;
3916;SDS011;1973;50.518;7.318;2023-03-01T10:44:37;19.30;;;14.50;;
3916;SDS011;1973;50.518;7.318;2023-03-01T10:49:55;19.50;;;15.33;;
3916;SDS011;1973;50.518;7.318;2023-03-01T10:52:27;22.80;;;15.47;;
3916;SDS011;1973;50.518;7.318;2023-03-01T10:55:04;18.10;;;15.43;;
3916;SDS011;1973;50.518;7.318;2023-03-01T10:57:49;19.33;;;15.60;;
3916;SDS011;1973;50.518;7.318;2023-03-01T11:00:18;18.40;;;15.40;;
3916;SDS011;1973;50.518;7.318;2023-03-01T11:03:13;18.10;;;14.80;;
3916;SDS011;1973;50.518;7.318;2023-03-01T11:08:43;18.00;;;15.07;;
3916;SDS011;1973;50.518;7.318;2023-03-01T11:11:17;19.37;;;15.10;;
3916;SDS011;1973;50.518;7.318;2023-03-01T11:13:54;17.80;;;14.20;;
3916;SDS011;1973;50.518;7.318;2023-03-01T11:16:26;20.70;;;15.50;;
3916;SDS011;1973;50.518;7.318;2023-03-01T11:18:55;19.97;;;15.23;;
3916;SDS011;1973;50.518;7.318;2023-03-01T11:21:24;17.80;;;15.20;;
3916;SDS011;1973;50.518;7.318;2023-03-01T11:23:54;18.00;;;15.33;;
3916;SDS011;1973;50.518;7.318;2023-03-01T11:26:21;18.70;;;15.20;;
3916;SDS011;1973;50.518;7.318;2023-03-01T11:28:50;18.67;;;14.20;;
3916;SDS011;1973;50.518;7.318;2023-03-01T11:31:20;22.10;;;15.47;;
3916;SDS011;1973;50.518;7.318;2023-03-01T11:33:54;16.50;;;13.93;;
3916;SDS011;1973;50.518;7.318;2023-03-01T11:36:30;17.20;;;15.30;;
3916;SDS011;1973;50.518;7.318;2023-03-01T11:42:15;17.40;;;14.37;;
3916;SDS011;1973;50.518;7.318;2023-03-01T11:44:50;16.63;;;14.07;;
3916;SDS011;1973;50.518;7.318;2023-03-01T11:50:11;15.07;;;13.00;;
3916;SDS011;1973;50.518;7.318;2023-03-01T11:52:52;14.40;;;12.00;;
3916;SDS011;1973;50.518;7.318;2023-03-01T12:04:23;15.53;;;11.57;;
3916;SDS011;1973;50.518;7.318;2023-03-01T12:10:04;12.10;;;10.70;;
3916;SDS011;1973;50.518;7.318;2023-03-01T12:12:53;11.07;;;9.93;;
3916;SDS011;1973;50.518;7.318;2023-03-01T12:27:16;12.37;;;10.00;;
3916;SDS011;1973;50.518;7.318;2023-03-01T12:29:59;12.73;;;10.20;;
3916;SDS011;1973;50.518;7.318;2023-03-01T12:43:58;11.07;;;8.90;;
3916;SDS011;1973;50.518;7.318;2023-03-01T12:46:41;10.97;;;9.10;;
3916;SDS011;1973;50.518;7.318;2023-03-01T12:49:28;14.00;;;11.60;;
3916;SDS011;1973;50.518;7.318;2023-03-01T12:52:06;14.40;;;9.70;;
3916;SDS011;1973;50.518;7.318;2023-03-01T12:54:40;9.60;;;8.13;;
3916;SDS011;1973;50.518;7.318;2023-03-01T13:02:59;10.37;;;8.80;;
3916;SDS011;1973;50.518;7.318;2023-03-01T13:05:56;9.63;;;8.10;;
3916;SDS011;1973;50.518;7.318;2023-03-01T13:11:17;11.73;;;8.67;;
3916;SDS011;1973;50.518;7.318;2023-03-01T13:13:46;10.50;;;8.60;;
3916;SDS011;1973;50.518;7.318;2023-03-01T13:21:41;8.70;;;7.90;;
3916;SDS011;1973;50.518;7.318;2023-03-01T13:24:29;8.43;;;7.33;;
3916;SDS011;1973;50.518;7.318;2023-03-01T13:27:09;8.10;;;6.77;;
3916;SDS011;1973;50.518;7.318;2023-03-01T13:29:44;10.40;;;8.73;;
3916;SDS011;1973;50.518;7.318;2023-03-01T13:32:18;9.70;;;8.10;;
3916;SDS011;1973;50.518;7.318;2023-03-01T13:37:41;11.00;;;7.73;;
3916;SDS011;1973;50.518;7.318;2023-03-01T13:42:49;9.77;;;7.10;;
3916;SDS011;1973;50.518;7.318;2023-03-01T13:48:04;10.10;;;6.70;;
3916;SDS011;1973;50.518;7.318;2023-03-01T13:50:38;9.20;;;7.77;;
3916;SDS011;1973;50.518;7.318;2023-03-01T13:53:14;9.77;;;7.50;;
3916;SDS011;1973;50.518;7.318;2023-03-01T13:55:45;8.10;;;7.20;;
3916;SDS011;1973;50.518;7.318;2023-03-01T13:58:29;8.90;;;6.60;;
3916;SDS011;1973;50.518;7.318;2023-03-01T14:01:01;9.53;;;7.20;;
3916;SDS011;1973;50.518;7.318;2023-03-01T14:03:31;8.10;;;7.00;;
3916;SDS011;1973;50.518;7.318;2023-03-01T14:06:00;7.57;;;6.67;;
3916;SDS011;1973;50.518;7.318;2023-03-01T14:08:49;8.27;;;6.93;;
3916;SDS011;1973;50.518;7.318;2023-03-01T14:11:34;9.80;;;7.53;;
3916;SDS011;1973;50.518;7.318;2023-03-01T14:19:45;7.57;;;6.33;;
3916;SDS011;1973;50.518;7.318;2023-03-01T14:24:50;8.33;;;6.77;;
3916;SDS011;1973;50.518;7.318;2023-03-01T14:27:19;8.87;;;7.03;;
3916;SDS011;1973;50.518;7.318;2023-03-01T14:29:56;7.77;;;6.47;;
3916;SDS011;1973;50.518;7.318;2023-03-01T14:32:25;6.83;;;6.10;;
3916;SDS011;1973;50.518;7.318;2023-03-01T14:34:54;8.70;;;7.10;;
3916;SDS011;1973;50.518;7.318;2023-03-01T14:37:30;7.93;;;6.30;;
3916;SDS011;1973;50.518;7.318;2023-03-01T14:39:59;7.70;;;6.60;;
3916;SDS011;1973;50.518;7.318;2023-03-01T14:42:28;7.77;;;6.27;;
3916;SDS011;1973;50.518;7.318;2023-03-01T14:45:00;7.53;;;5.60;;
3916;SDS011;1973;50.518;7.318;2023-03-01T14:47:32;7.77;;;5.63;;
3916;SDS011;1973;50.518;7.318;2023-03-01T14:52:39;10.30;;;6.87;;
3916;SDS011;1973;50.518;7.318;2023-03-01T14:55:18;8.40;;;5.80;;
3916;SDS011;1973;50.518;7.318;2023-03-01T14:57:48;10.10;;;6.33;;
3916;SDS011;1973;50.518;7.318;2023-03-01T15:00:21;8.90;;;6.20;;
3916;SDS011;1973;50.518;7.318;2023-03-01T15:02:53;7.70;;;6.20;;
3916;SDS011;1973;50.518;7.318;2023-03-01T15:05:31;8.90;;;5.90;;
3916;SDS011;1973;50.518;7.318;2023-03-01T15:08:00;10.13;;;7.23;;
3916;SDS011;1973;50.518;7.318;2023-03-01T15:10:29;10.10;;;6.20;;
3916;SDS011;1973;50.518;7.318;2023-03-01T15:13:11;10.73;;;6.27;;
3916;SDS011;1973;50.518;7.318;2023-03-01T15:15:42;6.80;;;5.87;;
3916;SDS011;1973;50.518;7.318;2023-03-01T15:18:18;6.50;;;5.90;;
3916;SDS011;1973;50.518;7.318;2023-03-01T15:20:48;6.70;;;5.40;;
3916;SDS011;1973;50.518;7.318;2023-03-01T15:23:17;6.50;;;4.97;;
3916;SDS011;1973;50.518;7.318;2023-03-01T15:26:03;7.27;;;4.97;;
3916;SDS011;1973;50.518;7.318;2023-03-01T15:28:30;9.13;;;5.90;;
3916;SDS011;1973;50.518;7.318;2023-03-01T15:34:21;9.67;;;5.60;;
3916;SDS011;1973;50.518;7.318;2023-03-01T15:36:51;6.30;;;5.40;;
3916;SDS011;1973;50.518;7.318;2023-03-01T15:39:36;6.33;;;5.33;;
3916;SDS011;1973;50.518;7.318;2023-03-01T15:42:09;6.33;;;5.53;;
3916;SDS011;1973;50.518;7.318;2023-03-01T15:44:38;6.17;;;4.60;;
3916;SDS011;1973;50.518;7.318;2023-03-01T15:47:22;10.93;;;5.00;;
3916;SDS011;1973;50.518;7.318;2023-03-01T15:49:52;5.37;;;4.67;;
3916;SDS011;1973;50.518;7.318;2023-03-01T15:52:39;5.20;;;4.60;;
3916;SDS011;1973;50.518;7.318;2023-03-01T15:55:18;5.37;;;4.10;;
3916;SDS011;1973;50.518;7.318;2023-03-01T15:58:15;5.20;;;4.30;;
3916;SDS011;1973;50.518;7.318;2023-03-01T16:00:45;5.40;;;4.00;;
3916;SDS011;1973;50.518;7.318;2023-03-01T16:03:26;6.77;;;5.47;;
3916;SDS011;1973;50.518;7.318;2023-03-01T16:05:53;6.23;;;4.50;;
3916;SDS011;1973;50.518;7.318;2023-03-01T16:08:19;6.50;;;4.57;;
3916;SDS011;1973;50.518;7.318;2023-03-01T16:10:46;8.13;;;5.30;;
3916;SDS011;1973;50.518;7.318;2023-03-01T16:13:15;7.40;;;5.07;;
3916;SDS011;1973;50.518;7.318;2023-03-01T16:15:43;5.57;;;5.03;;
3916;SDS011;1973;50.518;7.318;2023-03-01T16:18:09;7.83;;;5.17;;
3916;SDS011;1973;50.518;7.318;2023-03-01T16:20:37;6.77;;;5.50;;
3916;SDS011;1973;50.518;7.318;2023-03-01T16:23:05;6.63;;;5.60;;
3916;SDS011;1973;50.518;7.318;2023-03-01T16:25:34;8.80;;;6.67;;
3916;SDS011;1973;50.518;7.318;2023-03-01T16:28:01;7.10;;;5.57;;
3916;SDS011;1973;50.518;7.318;2023-03-01T16:30:31;7.73;;;5.60;;
3916;SDS011;1973;50.518;7.318;2023-03-01T16:32:57;8.60;;;6.00;;
3916;SDS011;1973;50.518;7.318;2023-03-01T16:35:24;9.50;;;6.17;;
3916;SDS011;1973;50.518;7.318;2023-03-01T16:37:51;8.83;;;6.50;;
3916;SDS011;1973;50.518;7.318;2023-03-01T16:40:21;7.87;;;5.60;;
3916;SDS011;1973;50.518;7.318;2023-03-01T16:42:53;6.50;;;5.70;;
3916;SDS011;1973;50.518;7.318;2023-03-01T16:45:25;5.47;;;4.57;;
3916;SDS011;1973;50.518;7.318;2023-03-01T16:48:00;8.10;;;7.10;;
3916;SDS011;1973;50.518;7.318;2023-03-01T16:50:26;8.40;;;6.13;;
3916;SDS011;1973;50.518;7.318;2023-03-01T16:52:53;10.97;;;7.77;;
3916;SDS011;1973;50.518;7.318;2023-03-01T16:55:19;20.30;;;13.40;;
3916;SDS011;1973;50.518;7.318;2023-03-01T16:57:46;19.60;;;12.77;;